Terminal Aerodrome Forecast
Issued by NWS

Current Version | Previous Version | Graphics & Text | Print | Product List | Glossary On
Versions: 1 2 3 4 5 6 7 8 9 10 11 12 13 14 15 16 17 18
000
FTUS41 KILN 182320
TAFLUK
TAF
KLUK 182320Z 1900/1924 00000KT P6SM FEW250
     FM190800 00000KT 3SM BR FEW250
      TEMPO 1908/1912 2SM BR SCT002
     FM191300 22007KT P6SM FEW250=

USA.gov is the U.S. government's official web portal to all federal, state and local government web resources and services.